Time;durP1;ratioP1;P1;durP2;ratioP2;P2;SDS_P1;SDS_P2;PMS_P1;PMS_P2;Temp;Humidity;BMP_temperature;BMP_pressure;BME280_temperature;BME280_humidity;BME280_pressure;Samples;Min_cycle;Max_cycle;Signal;HPM_P1;HPM_P2
2022/05/06 00:01:40;;;;;;;4.00;3.00;;;;;;;13.20;71.74;99467.25;5113635;28;41234;-79
2022/05/06 00:04:08;;;;;;;8.13;3.33;;;;;;;13.18;71.68;99474.47;5113219;28;42125;-79
2022/05/06 00:06:36;;;;;;;3.83;3.40;;;;;;;13.15;71.78;99472.00;5113955;28;41704;-80
2022/05/06 00:09:04;;;;;;;3.47;3.13;;;;;;;13.14;71.45;99467.63;5096179;28;43024;-80
2022/05/06 00:11:34;;;;;;;3.60;3.20;;;;;;;13.14;71.50;99480.94;5096516;28;43584;-79
2022/05/06 00:14:02;;;;;;;3.23;2.83;;;;;;;13.15;71.00;99473.81;5096157;28;38562;-80
2022/05/06 00:16:29;;;;;;;3.20;2.80;;;;;;;13.13;70.76;99473.88;5113475;28;42627;-79
2022/05/06 00:18:57;;;;;;;4.17;3.43;;;;;;;13.13;70.78;99473.88;5112758;28;42792;-81
2022/05/06 00:21:24;;;;;;;5.00;3.40;;;;;;;13.15;70.59;99468.47;5114285;27;43211;-80
2022/05/06 00:23:52;;;;;;;3.27;2.93;;;;;;;13.14;70.44;99469.41;5101845;27;41350;-79
2022/05/06 00:26:20;;;;;;;3.30;3.00;;;;;;;13.14;70.05;99474.72;5115916;27;42959;-79
2022/05/06 00:28:49;;;;;;;3.97;3.33;;;;;;;13.14;70.10;99482.69;5112731;28;42641;-80
2022/05/06 00:31:16;;;;;;;4.93;3.00;;;;;;;13.12;70.21;99471.31;5096163;28;41094;-79
2022/05/06 00:33:44;;;;;;;4.73;3.57;;;;;;;13.13;69.89;99479.19;5114003;28;40163;-79
2022/05/06 00:36:11;;;;;;;3.10;2.80;;;;;;;13.12;69.83;99481.94;5130383;28;43181;-80
2022/05/06 00:38:39;;;;;;;3.53;2.57;;;;;;;13.10;70.10;99479.41;5113469;28;42644;-79
2022/05/06 00:41:07;;;;;;;3.30;2.40;;;;;;;12.99;69.88;99471.22;5112276;28;41326;-78
2022/05/06 00:43:34;;;;;;;3.00;2.70;;;;;;;13.06;69.70;99477.88;5130953;28;40764;-78
2022/05/06 00:46:04;;;;;;;2.60;2.23;;;;;;;13.04;69.78;99485.09;5111936;28;43219;-78
2022/05/06 00:48:32;;;;;;;3.43;2.80;;;;;;;12.90;69.67;99455.84;5126809;28;43418;-80
2022/05/06 00:51:06;;;;;;;2.50;2.30;;;;;;;12.97;69.87;99472.28;5112933;28;41109;-80
2022/05/06 00:53:36;;;;;;;4.73;3.03;;;;;;;12.94;70.13;99478.63;5096039;28;38933;-80
2022/05/06 00:56:04;;;;;;;2.87;2.67;;;;;;;12.90;70.46;99472.66;5095371;28;41817;-80
2022/05/06 00:58:33;;;;;;;4.17;2.83;;;;;;;12.89;70.14;99475.41;5096299;28;20231;-80
2022/05/06 01:01:04;;;;;;;2.90;2.60;;;;;;;12.86;70.18;99471.13;5074999;28;41265;-79
2022/05/06 01:03:32;;;;;;;2.70;2.30;;;;;;;12.87;69.83;99477.28;5075529;28;38905;-79
2022/05/06 01:06:04;;;;;;;2.40;2.20;;;;;;;12.87;69.67;99479.94;5075500;28;40728;-80
2022/05/06 01:08:32;;;;;;;3.17;2.20;;;;;;;12.86;69.65;99475.59;5075048;28;43678;-78
2022/05/06 01:11:00;;;;;;;2.43;2.23;;;;;;;12.81;69.63;99472.38;5075074;28;41200;-80
2022/05/06 01:13:28;;;;;;;3.60;2.63;;;;;;;12.75;69.79;99462.97;5091469;28;41061;-80
2022/05/06 01:15:56;;;;;;;2.93;2.73;;;;;;;12.83;69.82;99481.13;5092319;28;41668;-79
2022/05/06 01:18:29;;;;;;;2.83;2.57;;;;;;;12.81;69.92;99477.69;5089400;28;43726;-80
2022/05/06 01:21:01;;;;;;;3.97;2.53;;;;;;;12.74;70.00;99473.69;5092272;28;42997;-79
2022/05/06 01:23:31;;;;;;;3.00;2.70;;;;;;;12.76;69.82;99485.94;5080523;27;38907;-80
2022/05/06 01:26:00;;;;;;;2.93;2.50;;;;;;;12.74;69.70;99486.97;5130204;27;41901;-79
2022/05/06 01:28:30;;;;;;;3.27;2.97;;;;;;;12.71;69.76;99481.88;5115160;27;45295;-79
2022/05/06 01:31:01;;;;;;;3.90;2.63;;;;;;;12.69;69.78;99481.09;5102313;28;41252;-80
2022/05/06 01:33:29;;;;;;;3.17;2.70;;;;;;;12.67;70.44;99485.66;5112083;28;40724;-79
2022/05/06 01:36:00;;;;;;;3.47;2.80;;;;;;;12.65;70.50;99483.09;5115883;27;41844;-80
2022/05/06 01:38:35;;;;;;;2.73;2.50;;;;;;;12.54;70.19;99470.44;5132818;27;42606;-78
2022/05/06 01:41:05;;;;;;;5.60;2.73;;;;;;;12.64;70.75;99485.81;5115778;27;41730;-79
2022/05/06 01:43:45;;;;;;;2.60;2.33;;;;;;;12.48;70.81;99462.88;5130012;27;40935;-79
2022/05/06 01:46:15;;;;;;;2.70;2.47;;;;;;;12.62;70.74;99488.56;5115763;27;42722;-79
2022/05/06 01:48:51;;;;;;;4.23;3.17;;;;;;;12.50;70.25;99474.22;5115003;27;43183;-80
2022/05/06 01:51:21;;;;;;;3.47;2.63;;;;;;;12.61;70.30;99496.66;5114531;27;41480;-77
2022/05/06 01:53:50;;;;;;;4.37;3.30;;;;;;;12.57;70.31;99496.84;5132322;27;39056;-79
2022/05/06 01:56:20;;;;;;;3.00;2.73;;;;;;;12.56;69.89;99489.81;5115772;27;41086;-79
2022/05/06 01:58:48;;;;;;;2.60;2.40;;;;;;;12.56;69.91;99488.97;5132266;27;42800;-79
2022/05/06 02:01:16;;;;;;;2.30;2.10;;;;;;;12.55;69.96;99488.09;5132174;27;43120;-79
2022/05/06 02:06:32;;;;;;;2.53;2.30;;;;;;;12.52;70.14;99488.28;5129357;27;41714;-79
2022/05/06 02:09:16;;;;;;;4.30;2.80;;;;;;;12.51;70.36;99475.94;5115196;27;42964;-80
2022/05/06 02:12:03;;;;;;;4.60;3.10;;;;;;;12.50;70.16;99484.88;5129272;27;42317;-79
2022/05/06 02:14:51;;;;;;;3.30;2.97;;;;;;;12.48;70.42;99481.47;5121149;27;39762;-79
2022/05/06 02:17:27;;;;;;;3.70;2.73;;;;;;;12.48;70.29;99476.16;5115194;27;40600;-79
2022/05/06 02:20:21;;;;;;;2.60;2.30;;;;;;;12.45;70.18;99473.69;5130457;27;42364;-81
2022/05/06 02:23:25;;;;;;;3.17;2.37;;;;;;;12.44;70.05;99474.63;5047845;28;42247;-80
2022/05/06 02:26:26;;;;;;;3.33;2.97;;;;;;;12.40;70.41;99478.41;5047284;28;40855;-79
2022/05/06 02:28:57;;;;;;;4.20;2.70;;;;;;;12.36;70.44;99473.38;5073492;28;40795;-79
2022/05/06 02:34:16;;;;;;;2.40;2.20;;;;;;;12.32;70.33;99485.97;5090673;28;42381;-79
2022/05/06 02:36:48;;;;;;;2.00;1.90;;;;;;;12.31;70.42;99494.88;5098753;28;39744;-80
2022/05/06 02:39:25;;;;;;;2.73;2.43;;;;;;;12.29;70.46;99495.91;5094421;28;43114;-79
2022/05/06 02:42:03;;;;;;;3.87;3.50;;;;;;;12.25;70.97;99489.94;5093646;28;43174;-79
2022/05/06 02:44:31;;;;;;;2.40;2.17;;;;;;;12.23;70.75;99494.50;5093832;28;44900;-80
2022/05/06 02:46:59;;;;;;;3.00;2.63;;;;;;;12.11;70.86;99471.31;5111423;28;40581;-80
2022/05/06 02:49:26;;;;;;;3.30;2.90;;;;;;;12.22;71.19;99490.13;5111111;28;41681;-79
2022/05/06 02:51:54;;;;;;;4.00;2.87;;;;;;;12.15;71.34;99480.81;5107382;28;43022;-79
2022/05/06 02:54:23;;;;;;;3.50;3.20;;;;;;;12.17;71.34;99482.44;5093503;28;42363;-79
2022/05/06 02:56:58;;;;;;;3.47;2.90;;;;;;;12.17;71.06;99492.19;5094296;28;40551;-80
2022/05/06 02:59:31;;;;;;;5.83;3.50;;;;;;;12.14;71.62;99492.38;5094116;28;40490;-80
2022/05/06 03:01:59;;;;;;;3.23;2.60;;;;;;;12.11;71.65;99492.56;5108305;28;43724;-80
2022/05/06 03:04:27;;;;;;;4.13;2.93;;;;;;;12.08;71.16;99490.94;5096853;28;42793;-81
2022/05/06 03:06:55;;;;;;;5.53;3.23;;;;;;;12.04;71.56;99489.41;5097932;28;38963;-79
2022/05/06 03:09:35;;;;;;;3.70;3.37;;;;;;;11.99;71.89;99485.31;5097649;28;40726;-80
2022/05/06 03:12:03;;;;;;;3.73;2.90;;;;;;;11.93;72.32;99483.88;5097518;28;44543;-80
2022/05/06 03:14:34;;;;;;;3.47;3.17;;;;;;;11.89;72.53;99482.31;5113942;28;42187;-80
2022/05/06 03:17:15;;;;;;;3.87;3.47;;;;;;;11.82;72.96;99473.88;5097497;28;39130;-78
2022/05/06 03:19:43;;;;;;;3.40;3.00;;;;;;;11.78;73.30;99480.28;5096367;28;40644;-79
2022/05/06 03:22:11;;;;;;;3.90;3.47;;;;;;;11.74;73.19;99486.69;5113989;28;42855;-79
2022/05/06 03:24:39;;;;;;;3.53;3.23;;;;;;;11.67;73.43;99482.66;5109252;27;41056;-79
2022/05/06 03:27:59;;;;;;;3.17;2.83;;;;;;;11.67;72.99;99487.13;5117415;27;39296;-79
2022/05/06 03:29:57;;;;;;;2.67;2.47;;;;;;;11.61;73.09;99488.34;5133997;27;41692;-78
2022/05/06 03:32:25;;;;;;;3.50;3.20;;;;;;;11.57;73.22;99486.78;5117675;27;41708;-79
2022/05/06 03:34:53;;;;;;;3.80;2.97;;;;;;;11.53;73.46;99490.56;5135420;27;42370;-79
2022/05/06 03:37:21;;;;;;;5.13;3.37;;;;;;;11.49;73.16;99495.19;5098359;28;38854;-79
2022/05/06 03:39:50;;;;;;;3.70;3.30;;;;;;;11.46;73.18;99497.16;5110509;28;41523;-80
2022/05/06 03:42:18;;;;;;;3.43;3.13;;;;;;;11.44;72.96;99491.94;5093438;28;43812;-79
2022/05/06 03:44:45;;;;;;;4.23;3.30;;;;;;;11.39;73.22;99498.41;5093010;28;42207;-80
2022/05/06 03:47:15;;;;;;;3.00;2.70;;;;;;;11.30;72.76;99481.22;5110231;28;43038;-78
2022/05/06 03:49:43;;;;;;;3.10;2.80;;;;;;;11.40;72.90;99508.09;5094314;28;41827;-78
2022/05/06 03:52:10;;;;;;;6.13;3.53;;;;;;;11.38;72.59;99507.31;5076376;28;44391;-79
2022/05/06 03:54:39;;;;;;;3.40;2.80;;;;;;;11.36;72.93;99503.91;5076429;28;42391;-80
2022/05/06 03:57:07;;;;;;;2.57;2.37;;;;;;;11.35;72.74;99507.50;5093657;28;39890;-79
2022/05/06 03:59:35;;;;;;;3.77;3.07;;;;;;;11.35;73.03;99502.19;5076165;28;40780;-80
2022/05/06 04:02:12;;;;;;;3.77;2.90;;;;;;;11.35;72.88;99504.84;5093186;28;42655;-80
2022/05/06 04:04:41;;;;;;;3.33;2.80;;;;;;;11.35;73.02;99503.06;5093099;28;42963;-79
2022/05/06 04:07:14;;;;;;;3.70;2.90;;;;;;;11.36;73.22;99506.56;5076496;28;39832;-80
2022/05/06 04:09:47;;;;;;;2.83;2.63;;;;;;;11.39;72.78;99515.19;5109600;28;40895;-79
2022/05/06 04:12:15;;;;;;;4.60;3.00;;;;;;;11.40;72.88;99516.03;5075800;28;41473;-80
2022/05/06 04:14:49;;;;;;;2.80;2.50;;;;;;;11.41;72.77;99512.44;5090044;28;42331;-79
2022/05/06 04:17:20;;;;;;;2.83;2.53;;;;;;;11.36;72.57;99510.06;5092657;28;39862;-79
2022/05/06 04:25:25;;;;;;;3.23;2.83;;;;;;;11.47;72.71;99522.75;5075384;28;41144;-79
2022/05/06 04:27:54;;;;;;;3.00;2.70;;;;;;;11.52;72.52;99531.28;5092315;28;39864;-79
2022/05/06 04:30:23;;;;;;;4.70;3.10;;;;;;;11.41;72.65;99504.50;5074838;28;40550;-78
2022/05/06 04:33:01;;;;;;;4.73;3.47;;;;;;;11.58;72.64;99530.94;5089583;28;42700;-79
2022/05/06 04:35:31;;;;;;;2.67;2.33;;;;;;;11.50;72.42;99517.25;5084056;27;42523;-79
2022/05/06 04:37:59;;;;;;;4.00;3.10;;;;;;;11.66;73.15;99530.50;5105562;28;42263;-79
2022/05/06 04:40:27;;;;;;;4.73;3.10;;;;;;;11.68;72.85;99532.16;5112731;28;40456;-79
2022/05/06 04:42:55;;;;;;;4.77;2.97;;;;;;;11.74;72.56;99537.13;5095474;28;44214;-80
2022/05/06 04:45:24;;;;;;;4.20;3.50;;;;;;;11.75;72.96;99519.38;5114584;27;42122;-78
2022/05/06 04:48:04;;;;;;;3.70;2.73;;;;;;;11.85;72.55;99528.56;5104982;28;39525;-80
2022/05/06 04:50:35;;;;;;;3.63;3.27;;;;;;;11.93;72.53;99541.41;5094752;28;42054;-79
2022/05/06 04:53:05;;;;;;;3.20;2.87;;;;;;;11.99;72.08;99538.41;5095633;28;42882;-80
2022/05/06 04:55:32;;;;;;;3.00;2.60;;;;;;;12.05;71.84;99541.56;5111636;27;43679;-80
2022/05/06 04:58:00;;;;;;;2.80;2.37;;;;;;;12.10;71.80;99541.31;5095770;28;38861;-80
2022/05/06 05:00:28;;;;;;;2.97;2.67;;;;;;;12.17;71.64;99540.00;5121323;27;42241;-79
2022/05/06 05:02:56;;;;;;;3.23;2.77;;;;;;;12.24;71.95;99543.97;5110334;28;44578;-79
2022/05/06 05:05:24;;;;;;;3.47;3.17;;;;;;;12.31;72.13;99548.00;5112540;28;43094;-80
2022/05/06 05:07:54;;;;;;;4.03;3.10;;;;;;;12.36;71.57;99537.97;5112999;28;40205;-78
2022/05/06 05:10:22;;;;;;;3.53;2.70;;;;;;;12.46;71.49;99551.56;5095674;28;42967;-79
2022/05/06 05:12:51;;;;;;;3.17;2.50;;;;;;;12.54;71.33;99554.63;5095475;28;41804;-79
2022/05/06 05:15:23;;;;;;;5.63;3.10;;;;;;;12.64;71.05;99557.56;5112419;28;43055;-79
2022/05/06 05:17:51;;;;;;;4.23;2.50;;;;;;;12.73;70.91;99562.38;5091640;28;39846;-79
2022/05/06 05:20:19;;;;;;;3.73;3.07;;;;;;;12.81;70.73;99557.44;5075029;28;41902;-79
2022/05/06 05:22:47;;;;;;;4.17;2.83;;;;;;;12.89;70.46;99555.16;5116589;27;42693;-80
2022/05/06 05:25:18;;;;;;;3.63;2.63;;;;;;;12.98;70.03;99565.25;5115113;27;42612;-79
2022/05/06 05:27:47;;;;;;;3.47;2.80;;;;;;;12.99;70.02;99545.66;5115898;27;39788;-79
2022/05/06 05:30:25;;;;;;;2.83;2.63;;;;;;;13.11;70.13;99555.53;5115652;27;41615;-79
2022/05/06 05:32:53;;;;;;;3.80;3.20;;;;;;;13.23;69.80;99559.28;5115712;27;41813;-80
2022/05/06 05:35:20;;;;;;;3.20;2.90;;;;;;;13.34;68.91;99572.78;5115321;27;41413;-79
2022/05/06 05:37:56;;;;;;;3.30;2.73;;;;;;;13.42;68.22;99574.97;5129490;27;41352;-79
2022/05/06 05:40:25;;;;;;;2.90;2.70;;;;;;;13.54;67.71;99574.19;5132122;27;42137;-79
2022/05/06 05:42:53;;;;;;;2.90;2.50;;;;;;;13.66;67.38;99584.06;5132339;27;43503;-78
2022/05/06 05:48:22;;;;;;;2.20;2.03;;;;;;;13.87;66.84;99587.16;5129963;27;41055;-80
2022/05/06 05:50:55;;;;;;;4.50;2.17;;;;;;;13.99;66.51;99591.69;5108657;28;41789;-81
2022/05/06 05:53:31;;;;;;;2.97;2.43;;;;;;;14.11;65.99;99590.88;5094937;28;42054;-81
2022/05/06 05:56:01;;;;;;;3.33;2.10;;;;;;;14.23;65.89;99594.56;5094772;28;40967;-78
2022/05/06 05:58:29;;;;;;;2.73;2.20;;;;;;;14.34;65.14;99603.56;5090516;28;39977;-79
2022/05/06 06:01:00;;;;;;;2.43;2.23;;;;;;;14.48;65.25;99594.69;5074458;28;41556;-79
2022/05/06 06:03:33;;;;;;;3.10;2.17;;;;;;;14.60;64.14;99601.84;5088849;28;43483;-79
2022/05/06 06:06:02;;;;;;;4.67;2.43;;;;;;;14.69;63.03;99611.91;5074437;28;41019;-79
2022/05/06 06:08:30;;;;;;;3.83;2.40;;;;;;;14.82;62.97;99613.75;5091282;28;38902;-78
2022/05/06 06:11:02;;;;;;;2.37;2.17;;;;;;;14.96;62.84;99616.34;5074371;28;40753;-79
2022/05/06 06:13:35;;;;;;;2.60;2.40;;;;;;;15.14;63.23;99615.06;5074164;28;41732;-78
2022/05/06 06:16:06;;;;;;;2.57;2.10;;;;;;;15.27;62.36;99615.06;5083551;28;42219;-80
2022/05/06 06:18:34;;;;;;;2.63;2.13;;;;;;;15.38;62.14;99618.69;5108193;28;41752;-81
2022/05/06 06:21:03;;;;;;;2.40;2.20;;;;;;;15.45;61.16;99598.59;5084299;28;40767;-84
2022/05/06 06:23:33;;;;;;;3.17;2.60;;;;;;;15.67;61.19;99613.16;5073475;28;41742;-78
2022/05/06 06:26:03;;;;;;;4.40;2.50;;;;;;;15.88;61.61;99624.97;5110023;28;43083;-83
2022/05/06 06:28:31;;;;;;;3.70;2.97;;;;;;;15.88;61.22;99600.91;5113635;27;40086;-83
2022/05/06 06:30:59;;;;;;;2.83;2.63;;;;;;;16.19;61.58;99628.09;5088591;27;40918;-82
2022/05/06 06:33:27;;;;;;;6.20;3.90;;;;;;;16.29;61.15;99619.28;5110944;28;43728;-79
2022/05/06 06:35:54;;;;;;;3.93;2.83;;;;;;;16.50;60.90;99622.16;5110276;28;42251;-80
2022/05/06 06:38:22;;;;;;;3.17;2.87;;;;;;;16.69;60.11;99633.22;5113015;27;41318;-78
2022/05/06 06:40:49;;;;;;;3.33;3.03;;;;;;;16.69;59.83;99609.13;5114586;28;42417;-81
2022/05/06 06:43:18;;;;;;;4.23;2.53;;;;;;;16.93;57.81;99643.06;5097033;28;41778;-82
2022/05/06 06:46:06;;;;;;;2.50;2.30;;;;;;;17.14;57.42;99639.59;5112031;28;43279;-81
2022/05/06 06:48:54;;;;;;;3.30;2.53;;;;;;;17.30;54.50;99662.50;5114976;28;40182;-79
2022/05/06 06:51:42;;;;;;;3.53;2.13;;;;;;;17.43;54.11;99664.09;5073255;28;42798;-81
2022/05/06 06:54:10;;;;;;;4.97;2.57;;;;;;;17.66;54.74;99648.09;5094564;28;41732;-80
2022/05/06 06:56:37;;;;;;;2.13;1.90;;;;;;;17.82;53.83;99653.91;5084169;28;42787;-80
2022/05/06 06:59:06;;;;;;;2.23;2.00;;;;;;;18.02;53.72;99650.50;5093654;28;38777;-80
2022/05/06 07:01:33;;;;;;;3.10;1.93;;;;;;;18.26;54.27;99650.34;5083870;28;41773;-83
2022/05/06 07:04:01;;;;;;;2.30;1.90;;;;;;;18.45;53.62;99649.69;5114617;28;43719;-81
2022/05/06 07:11:58;;;;;;;2.90;1.97;;;;;;;18.99;50.24;99669.28;5101073;28;42373;-84
2022/05/06 07:14:33;;;;;;;2.70;2.10;;;;;;;18.98;49.81;99656.84;5097002;28;42980;-82
2022/05/06 07:17:02;;;;;;;2.70;1.87;;;;;;;19.10;49.76;99654.94;5096631;28;41010;-81
2022/05/06 07:19:30;;;;;;;2.30;1.47;;;;;;;19.45;49.89;99670.72;5077164;28;40204;-82
2022/05/06 07:21:57;;;;;;;2.27;2.07;;;;;;;19.67;49.10;99681.34;5091624;28;40202;-79
2022/05/06 07:24:25;;;;;;;2.67;2.00;;;;;;;19.83;48.30;99685.38;5114332;28;42652;-80
2022/05/06 07:26:53;;;;;;;2.97;2.30;;;;;;;19.91;47.40;99680.19;5101465;28;41167;-84
2022/05/06 07:29:21;;;;;;;4.00;2.23;;;;;;;19.92;45.01;99687.25;5093771;28;38771;-87
2022/05/06 07:31:50;;;;;;;2.67;1.80;;;;;;;20.05;45.66;99690.56;5113230;28;41038;-83
2022/05/06 07:34:18;;;;;;;3.13;2.30;;;;;;;20.20;46.68;99683.84;5096263;28;42427;-84
2022/05/06 07:36:46;;;;;;;2.87;1.97;;;;;;;20.39;47.52;99670.50;5104560;28;43482;-83
2022/05/06 07:39:16;;;;;;;2.40;2.03;;;;;;;20.53;46.51;99679.13;5113990;28;39154;-81
2022/05/06 07:41:43;;;;;;;2.13;1.90;;;;;;;20.60;42.23;99708.06;5114539;28;42587;-81
2022/05/06 07:44:11;;;;;;;2.83;2.27;;;;;;;20.57;42.65;99685.94;5096673;28;42929;-83
2022/05/06 07:46:39;;;;;;;3.20;2.13;;;;;;;20.58;42.92;99679.56;5113196;28;41487;-79
2022/05/06 07:49:08;;;;;;;4.63;1.70;;;;;;;20.93;42.47;99716.72;5096357;28;38938;-80
2022/05/06 07:51:36;;;;;;;2.37;1.90;;;;;;;20.94;41.37;99702.28;5113906;28;42888;-84
2022/05/06 07:54:04;;;;;;;1.90;1.53;;;;;;;21.23;43.24;99715.78;5096949;28;41849;-83
2022/05/06 07:56:32;;;;;;;3.37;1.97;;;;;;;21.50;42.62;99702.44;5096270;28;42163;-80
2022/05/06 07:59:00;;;;;;;3.17;1.97;;;;;;;21.59;41.34;99715.03;5114804;28;41787;-81
2022/05/06 08:07:00;;;;;;;2.87;1.70;;;;;;;22.35;39.76;99715.81;5092992;28;41576;-82
2022/05/06 08:09:27;;;;;;;2.17;1.67;;;;;;;22.72;39.80;99726.53;5093603;28;41029;-84
2022/05/06 08:11:55;;;;;;;2.20;1.77;;;;;;;23.02;39.04;99730.75;5104111;28;41681;-82
2022/05/06 08:14:22;;;;;;;2.20;1.53;;;;;;;23.42;38.30;99710.50;5096516;28;40688;-85
2022/05/06 08:16:50;;;;;;;1.50;1.40;;;;;;;23.59;37.65;99702.38;5114090;28;42215;-80
2022/05/06 08:19:20;;;;;;;2.20;2.00;;;;;;;23.72;36.17;99737.13;5096192;28;40334;-79
2022/05/06 08:21:48;;;;;;;3.10;1.87;;;;;;;23.74;36.19;99732.38;5112925;28;41494;-86
2022/05/06 08:24:16;;;;;;;2.20;2.00;;;;;;;23.84;36.71;99726.91;5098892;28;41719;-83
2022/05/06 08:26:43;;;;;;;2.70;1.67;;;;;;;24.31;37.78;99717.38;5114127;28;43270;-81
2022/05/06 08:29:11;;;;;;;4.30;1.70;;;;;;;25.15;35.78;99740.00;5113358;28;39945;-84
2022/05/06 08:31:40;;;;;;;2.00;1.50;;;;;;;25.80;33.31;99751.72;5113041;28;42610;-84
2022/05/06 08:34:08;;;;;;;2.47;1.90;;;;;;;26.09;32.87;99762.00;5112997;28;42919;-85
2022/05/06 08:36:39;;;;;;;2.97;1.50;;;;;;;26.19;31.04;99776.28;5113953;28;42254;-82
2022/05/06 08:39:08;;;;;;;1.70;1.60;;;;;;;26.54;33.15;99739.69;5112949;28;39588;-80
2022/05/06 08:41:37;;;;;;;1.90;1.80;;;;;;;26.72;30.94;99767.44;5095428;28;41601;-82
2022/05/06 08:52:27;;;;;;;1.90;1.40;;;;;;;27.53;31.84;99737.03;5109463;28;41963;-80
2022/05/06 08:54:54;;;;;;;2.53;1.80;;;;;;;27.91;29.05;99775.16;5112183;28;41699;-82
2022/05/06 08:57:23;;;;;;;1.83;1.50;;;;;;;28.06;30.81;99750.69;5095559;28;42352;-82
2022/05/06 08:59:52;;;;;;;2.30;1.30;;;;;;;27.68;30.38;99768.91;5095936;27;38687;-80
2022/05/06 09:02:20;;;;;;;1.73;1.60;;;;;;;27.21;30.26;99764.47;5113080;28;42075;-81
2022/05/06 09:04:48;;;;;;;2.50;1.83;;;;;;;27.22;31.59;99749.84;5112582;28;41642;-81
2022/05/06 09:07:19;;;;;;;1.60;1.43;;;;;;;27.21;30.72;99756.28;5112748;28;41315;-82
2022/05/06 09:10:13;;;;;;;2.07;1.30;;;;;;;27.04;28.23;99774.63;5095783;28;39049;-86
2022/05/06 09:12:42;;;;;;;1.93;1.40;;;;;;;26.90;30.51;99740.00;5110268;28;41715;-84
2022/05/06 09:17:56;;;;;;;1.97;1.43;;;;;;;27.19;31.40;99755.66;5094665;28;41281;-80
2022/05/06 09:20:25;;;;;;;1.93;1.37;;;;;;;26.95;29.96;99763.97;5112704;28;39873;-82
2022/05/06 09:22:53;;;;;;;1.97;1.60;;;;;;;26.76;30.21;99770.66;5112434;28;41734;-81
2022/05/06 09:25:49;;;;;;;1.60;1.33;;;;;;;26.81;33.00;99744.63;5113759;28;43836;-78
2022/05/06 09:28:26;;;;;;;4.20;1.50;;;;;;;26.95;30.38;99744.94;5089649;28;42483;-79
2022/05/06 09:31:01;;;;;;;2.90;1.50;;;;;;;26.88;31.45;99735.75;5076030;28;40214;-80
2022/05/06 09:33:29;;;;;;;2.30;1.50;;;;;;;27.08;32.38;99735.13;5121585;28;41787;-81
2022/05/06 09:35:57;;;;;;;1.87;1.40;;;;;;;27.08;31.81;99742.44;5114859;28;43094;-83
2022/05/06 09:38:26;;;;;;;2.00;1.70;;;;;;;27.34;29.46;99763.84;5131291;28;43441;-78
2022/05/06 09:40:55;;;;;;;1.90;1.70;;;;;;;27.36;31.07;99754.50;5131281;28;40649;-78
2022/05/06 09:43:22;;;;;;;2.00;1.70;;;;;;;27.27;31.00;99747.44;5113929;28;40448;-80
2022/05/06 09:45:50;;;;;;;2.13;1.47;;;;;;;27.18;30.74;99743.94;5114541;28;43634;-79
2022/05/06 09:48:17;;;;;;;2.77;1.60;;;;;;;27.19;31.98;99733.91;5125974;28;43476;-78
2022/05/06 09:50:46;;;;;;;2.33;1.50;;;;;;;27.05;30.11;99748.28;5114645;28;39125;-82
2022/05/06 09:53:15;;;;;;;1.90;1.67;;;;;;;26.86;28.89;99770.41;5092538;28;41854;-80
2022/05/06 09:55:45;;;;;;;2.27;1.70;;;;;;;26.99;30.95;99752.53;5091925;28;42589;-81
2022/05/06 09:58:15;;;;;;;1.47;1.37;;;;;;;27.13;30.91;99746.34;5092812;28;42315;-80
2022/05/06 10:00:43;;;;;;;1.30;1.20;;;;;;;27.46;28.30;99768.69;5095971;28;39512;-82
2022/05/06 10:03:11;;;;;;;1.40;1.30;;;;;;;27.50;28.77;99748.25;5091364;28;41461;-79
2022/05/06 10:05:39;;;;;;;3.03;1.47;;;;;;;27.57;29.37;99758.47;5092552;28;43621;-84
2022/05/06 10:08:12;;;;;;;1.50;1.23;;;;;;;27.71;29.69;99754.91;5074208;28;42582;-80
2022/05/06 10:10:42;;;;;;;1.00;0.90;;;;;;;28.07;29.19;99755.91;5088145;28;40732;-84
2022/05/06 10:13:16;;;;;;;2.07;1.40;;;;;;;28.45;27.14;99775.78;5110057;28;42844;-77
2022/05/06 10:15:48;;;;;;;1.30;1.20;;;;;;;28.62;27.13;99770.16;5109507;28;43711;-83
2022/05/06 10:18:32;;;;;;;1.23;0.97;;;;;;;28.85;27.00;99760.84;5110985;28;41366;-86
2022/05/06 10:21:01;;;;;;;3.90;1.20;;;;;;;29.10;26.20;99774.13;5107598;28;39696;-84
2022/05/06 10:23:50;;;;;;;2.43;1.30;;;;;;;28.96;25.95;99773.13;5111613;28;42155;-85
2022/05/06 10:26:41;;;;;;;1.03;1.00;;;;;;;29.39;26.01;99762.31;5112303;28;42837;-81
2022/05/06 10:35:11;;;;;;;1.37;1.27;;;;;;;31.20;23.14;99780.34;5073671;28;40903;-82
2022/05/06 10:37:40;;;;;;;2.20;1.10;;;;;;;31.71;24.94;99758.75;5072462;28;41765;-83
2022/05/06 10:40:28;;;;;;;0.90;0.90;;;;;;;32.41;23.08;99779.16;5101447;28;43877;-80
2022/05/06 10:42:56;;;;;;;1.13;1.03;;;;;;;32.48;22.49;99785.50;5090803;28;40759;-86
2022/05/06 10:45:26;;;;;;;1.10;1.10;;;;;;;32.33;22.40;99768.44;5094647;28;41848;-87
2022/05/06 10:47:54;;;;;;;1.27;1.03;;;;;;;32.08;22.89;99770.97;5112113;28;42774;-80
2022/05/06 10:50:24;;;;;;;1.50;0.97;;;;;;;32.13;23.83;99748.41;5110955;28;42365;-91
2022/05/06 10:52:52;;;;;;;1.10;1.10;;;;;;;32.43;22.14;99740.56;5110558;28;41400;-83
2022/05/06 10:55:22;;;;;;;3.07;1.27;;;;;;;32.28;20.92;99792.06;5110796;28;41758;-82
2022/05/06 10:57:58;;;;;;;1.13;1.03;;;;;;;32.32;22.03;99769.50;5093284;28;41721;-82
2022/05/06 11:00:29;;;;;;;1.93;1.20;;;;;;;32.63;20.94;99778.91;5110874;28;42686;-78
2022/05/06 11:03:01;;;;;;;1.07;1.00;;;;;;;32.65;20.73;99779.50;5107514;28;40711;-82
2022/05/06 11:05:31;;;;;;;1.33;1.23;;;;;;;32.12;20.45;99782.38;5110666;28;40943;-83
2022/05/06 11:08:01;;;;;;;1.97;0.90;;;;;;;31.69;20.89;99763.59;5093439;28;41611;-82
2022/05/06 11:10:31;;;;;;;0.80;0.80;;;;;;;31.97;21.27;99766.13;5111909;28;41991;-84
2022/05/06 11:13:01;;;;;;;2.27;1.10;;;;;;;32.33;22.99;99754.72;5090054;28;38803;-83
2022/05/06 11:15:31;;;;;;;1.00;1.00;;;;;;;32.77;21.31;99744.88;5091108;28;41531;-81
2022/05/06 11:18:01;;;;;;;1.10;0.80;;;;;;;32.98;20.83;99763.81;5092056;28;44603;-82
2022/05/06 11:20:56;;;;;;;1.90;1.20;;;;;;;33.13;20.21;99739.66;5110631;28;41149;-88
2022/05/06 11:26:33;;;;;;;1.83;1.20;;;;;;;32.39;20.55;99750.28;5076042;28;41034;-88
2022/05/06 11:29:06;;;;;;;0.90;0.90;;;;;;;32.28;20.69;99738.06;5076627;28;41715;-90
2022/05/06 11:31:35;;;;;;;1.10;1.00;;;;;;;32.49;20.38;99753.41;5083450;28;41164;-85
2022/05/06 11:34:07;;;;;;;1.10;1.00;;;;;;;32.38;21.12;99752.19;5096957;28;38990;-87
2022/05/06 11:36:36;;;;;;;1.77;1.30;;;;;;;31.72;23.19;99691.97;5096246;28;40629;-86
2022/05/06 11:39:11;;;;;;;1.40;1.30;;;;;;;31.65;21.40;99723.97;5094829;28;41772;-87
2022/05/06 11:41:39;;;;;;;2.00;1.10;;;;;;;31.59;22.06;99722.06;5110494;28;43327;-84
2022/05/06 11:44:07;;;;;;;2.37;1.40;;;;;;;31.62;23.39;99705.22;5095463;28;38902;-82
2022/05/06 11:49:25;;;;;;;1.50;1.40;;;;;;;32.56;22.44;99710.34;5112698;28;43205;-82
2022/05/06 11:51:56;;;;;;;1.40;1.30;;;;;;;33.13;21.25;99727.84;5102562;28;42297;-86
2022/05/06 11:54:27;;;;;;;1.13;1.07;;;;;;;33.51;20.00;99741.50;5092398;28;39950;-85
2022/05/06 11:56:55;;;;;;;0.90;0.90;;;;;;;34.28;21.71;99721.00;5101354;28;40808;-84
2022/05/06 11:59:23;;;;;;;1.30;1.20;;;;;;;34.75;19.79;99704.75;5109158;27;42603;-84
2022/05/06 12:01:52;;;;;;;1.63;1.07;;;;;;;35.35;18.31;99748.88;5105037;27;41270;-87
2022/05/06 12:04:31;;;;;;;1.00;1.00;;;;;;;35.90;18.77;99736.53;5114218;27;41510;-86
2022/05/06 12:06:59;;;;;;;1.00;1.00;;;;;;;35.90;20.18;99724.66;5118885;27;42518;-82
2022/05/06 12:09:28;;;;;;;1.07;1.07;;;;;;;36.87;19.84;99719.41;5094563;28;41970;-82
2022/05/06 12:12:07;;;;;;;1.33;1.23;;;;;;;38.52;17.43;99731.88;5112802;28;42947;-84
2022/05/06 12:14:36;;;;;;;1.10;1.07;;;;;;;38.98;16.21;99730.56;5112652;28;40459;-85
2022/05/06 12:17:06;;;;;;;1.00;0.80;;;;;;;38.59;16.70;99727.00;5111398;28;41325;-84
2022/05/06 12:19:38;;;;;;;1.03;0.90;;;;;;;37.60;17.18;99719.38;5094853;28;42076;-82
2022/05/06 12:22:10;;;;;;;0.80;0.80;;;;;;;37.87;16.53;99721.50;5095357;28;41637;-81
2022/05/06 12:24:40;;;;;;;1.20;0.90;;;;;;;38.41;16.58;99728.16;5118472;27;40897;-83
2022/05/06 12:27:08;;;;;;;0.80;0.80;;;;;;;37.79;15.85;99731.09;5124502;27;41485;-82
2022/05/06 12:29:40;;;;;;;1.83;1.00;;;;;;;36.78;17.58;99704.31;5104837;28;43753;-80
2022/05/06 12:32:11;;;;;;;0.90;0.90;;;;;;;36.53;18.17;99704.59;5085994;28;43923;-80
2022/05/06 12:34:39;;;;;;;1.53;1.00;;;;;;;37.79;18.35;99705.34;5113238;27;39742;-84
2022/05/06 12:37:11;;;;;;;3.90;1.00;;;;;;;38.98;17.59;99658.53;5101755;27;42136;-85
2022/05/06 12:39:41;;;;;;;1.33;1.23;;;;;;;39.73;15.04;99710.25;5114555;27;41754;-85